Denali Natl Park, AK (99755)

6:27 AM AKDT on May 29, 2017 (GMT -0800)
Yanert View 2350ft | | Change Station

Elev 2350 ft 63.65 °N, 148.77 °W | Updated 14 seconds ago

Overcast
Overcast
39.0 °F
Feels Like 36 °F
N
4.2
Wind Variable Wind from SW
Gusts 4.9 mph

Today
High -- | Low -- °F
--% Chance of Precip.
Yesterday
High -- | Low -- °F
Precip. -- in
Pressure 29.78 in
Visibility 10.0 miles
Clouds Overcast 6000 ft
Windchill 36 °F
Dew Point 34 °F
Humidity 81%
Rainfall 0.04 in
Snow Depth Not available.
4:03 AM 11:42 PM
Waxing Crescent, 20% visible
METAR PAIN 291416Z 00000KT 10SM OVC060 05/02 A2978 RMK AO1
Pressure 29.78 in
Visibility 10.0 miles
Clouds Overcast 6000 ft
Windchill 36 °F
Dew Point 34 °F
Humidity 81%
Rainfall 0.04 in
Snow Depth Not available.
4:03 AM 11:42 PM
Waxing Crescent, 20% visible
METAR PAIN 291416Z 00000KT 10SM OVC060 05/02 A2978 RMK AO1

Get Severe Weather Alerts

Thanks for signing up!

Be on the lookout for a verification email in your inbox.

You'll start receiving the daily forecast at 6 AM.

×

10-Day Weather Forecast

Almanac

Astronomy

May. 29, 2017 Rise Set
Actual Time
Civil Twilight
Nautical Twilight
Astronomical Twilight
Moon
Length of Visible Light
Length of Day
Tomorrow will be .
, % of the Moon is Illuminated

Today's Extremes

State Highs State Lows

Community

WunderPhotos

Category 6

Welcome to Category 6. This is the collective home for Weather Underground's featured writeups by Dr. Jeff Masters (right), Bob Henson (left), Chris Burt, and other regular contributors.

Nearby

Air Quality

  Air Quality AQ Index Pollutant
Not available.

Snow Depth

Station Depth Elevation

Earthquake Activity

City Distance Mag. Time & Date
Minimum magnitude displayed is 2.5.

Coastal Water Temperatures

Place Temperature

Stations

Nearby Weather Stations

Station Location Temp. Windchill Dew Point Humidity Wind Precip. Elev Updated Type
                   

Watches & Warnings

There are currently no watches in effect.